sensor_id;sensor_type;location;lat;lon;timestamp;temperature;humidity
65752;DHT22;52486;51.098;13.770;2023-12-20T00:01:16;21.90;65.70
65752;DHT22;52486;51.098;13.770;2023-12-20T00:03:42;22.00;65.60
65752;DHT22;52486;51.098;13.770;2023-12-20T00:06:07;21.90;65.50
65752;DHT22;52486;51.098;13.770;2023-12-20T00:10:59;21.90;65.40
65752;DHT22;52486;51.098;13.770;2023-12-20T00:13:24;22.10;65.70
65752;DHT22;52486;51.098;13.770;2023-12-20T00:15:50;21.70;65.40
65752;DHT22;52486;51.098;13.770;2023-12-20T00:23:07;21.80;65.60
65752;DHT22;52486;51.098;13.770;2023-12-20T00:25:33;21.70;65.50
65752;DHT22;52486;51.098;13.770;2023-12-20T00:27:59;21.80;65.40
65752;DHT22;52486;51.098;13.770;2023-12-20T00:35:17;21.90;65.60
65752;DHT22;52486;51.098;13.770;2023-12-20T00:37:43;21.70;65.70
65752;DHT22;52486;51.098;13.770;2023-12-20T00:40:08;21.90;65.60
65752;DHT22;52486;51.098;13.770;2023-12-20T00:45:01;22.10;65.70
65752;DHT22;52486;51.098;13.770;2023-12-20T00:47:27;21.80;65.70
65752;DHT22;52486;51.098;13.770;2023-12-20T00:49:53;21.80;65.70
65752;DHT22;52486;51.098;13.770;2023-12-20T00:52:18;21.90;65.80
65752;DHT22;52486;51.098;13.770;2023-12-20T00:57:10;21.90;65.80
65752;DHT22;52486;51.098;13.770;2023-12-20T00:59:35;21.70;65.70
65752;DHT22;52486;51.098;13.770;2023-12-20T01:02:01;21.80;64.40
65752;DHT22;52486;51.098;13.770;2023-12-20T01:04:27;21.80;65.80
65752;DHT22;52486;51.098;13.770;2023-12-20T01:06:52;21.70;65.80
65752;DHT22;52486;51.098;13.770;2023-12-20T01:11:44;21.90;65.90
65752;DHT22;52486;51.098;13.770;2023-12-20T01:14:11;21.90;66.00
65752;DHT22;52486;51.098;13.770;2023-12-20T01:16:37;22.00;66.00
65752;DHT22;52486;51.098;13.770;2023-12-20T01:19:03;21.80;65.90
65752;DHT22;52486;51.098;13.770;2023-12-20T01:21:28;21.90;65.90
65752;DHT22;52486;51.098;13.770;2023-12-20T01:23:54;21.90;65.70
65752;DHT22;52486;51.098;13.770;2023-12-20T01:26:19;21.90;66.00
65752;DHT22;52486;51.098;13.770;2023-12-20T01:31:10;21.80;66.00
65752;DHT22;52486;51.098;13.770;2023-12-20T01:33:36;21.70;65.90
65752;DHT22;52486;51.098;13.770;2023-12-20T01:36:02;22.00;66.10
65752;DHT22;52486;51.098;13.770;2023-12-20T01:38:28;21.80;65.90
65752;DHT22;52486;51.098;13.770;2023-12-20T01:40:53;21.80;65.90
65752;DHT22;52486;51.098;13.770;2023-12-20T01:45:44;21.80;65.80
65752;DHT22;52486;51.098;13.770;2023-12-20T01:48:10;21.90;66.10
65752;DHT22;52486;51.098;13.770;2023-12-20T01:50:36;21.70;66.00
65752;DHT22;52486;51.098;13.770;2023-12-20T01:53:02;21.80;66.00
65752;DHT22;52486;51.098;13.770;2023-12-20T01:57:55;21.80;66.00
65752;DHT22;52486;51.098;13.770;2023-12-20T02:00:20;21.50;66.00
65752;DHT22;52486;51.098;13.770;2023-12-20T02:02:48;21.50;66.00
65752;DHT22;52486;51.098;13.770;2023-12-20T02:05:15;21.80;66.10
65752;DHT22;52486;51.098;13.770;2023-12-20T02:07:41;21.80;66.10
65752;DHT22;52486;51.098;13.770;2023-12-20T02:10:07;21.60;66.10
65752;DHT22;52486;51.098;13.770;2023-12-20T02:12:33;21.80;66.10
65752;DHT22;52486;51.098;13.770;2023-12-20T02:14:58;21.70;66.10
65752;DHT22;52486;51.098;13.770;2023-12-20T02:19:50;21.80;65.60
65752;DHT22;52486;51.098;13.770;2023-12-20T02:22:15;21.70;66.20
65752;DHT22;52486;51.098;13.770;2023-12-20T02:24:41;21.70;66.30
65752;DHT22;52486;51.098;13.770;2023-12-20T02:27:07;21.60;66.10
65752;DHT22;52486;51.098;13.770;2023-12-20T02:29:33;21.70;66.20
65752;DHT22;52486;51.098;13.770;2023-12-20T02:34:24;21.60;66.10
65752;DHT22;52486;51.098;13.770;2023-12-20T02:36:50;21.60;66.10
65752;DHT22;52486;51.098;13.770;2023-12-20T02:39:15;21.90;66.20
65752;DHT22;52486;51.098;13.770;2023-12-20T02:41:41;21.70;66.10
65752;DHT22;52486;51.098;13.770;2023-12-20T02:44:06;21.80;66.20
65752;DHT22;52486;51.098;13.770;2023-12-20T02:46:32;21.90;66.30
65752;DHT22;52486;51.098;13.770;2023-12-20T02:51:23;21.60;66.10
65752;DHT22;52486;51.098;13.770;2023-12-20T02:53:49;21.50;66.10
65752;DHT22;52486;51.098;13.770;2023-12-20T02:56:14;21.70;66.20
65752;DHT22;52486;51.098;13.770;2023-12-20T02:58:40;21.60;66.10
65752;DHT22;52486;51.098;13.770;2023-12-20T03:05:57;21.60;66.10
65752;DHT22;52486;51.098;13.770;2023-12-20T03:15:42;21.60;66.10
65752;DHT22;52486;51.098;13.770;2023-12-20T03:18:08;21.70;66.40
65752;DHT22;52486;51.098;13.770;2023-12-20T03:20:33;21.70;66.30
65752;DHT22;52486;51.098;13.770;2023-12-20T03:25:25;21.50;66.10
65752;DHT22;52486;51.098;13.770;2023-12-20T03:27:52;21.70;66.40
65752;DHT22;52486;51.098;13.770;2023-12-20T03:30:17;21.70;66.40
65752;DHT22;52486;51.098;13.770;2023-12-20T03:32:43;21.60;66.30
65752;DHT22;52486;51.098;13.770;2023-12-20T03:35:09;21.60;66.30
65752;DHT22;52486;51.098;13.770;2023-12-20T03:37:34;21.60;66.40
65752;DHT22;52486;51.098;13.770;2023-12-20T03:39:59;21.50;66.40
65752;DHT22;52486;51.098;13.770;2023-12-20T03:42:25;21.50;66.30
65752;DHT22;52486;51.098;13.770;2023-12-20T03:44:51;21.70;66.10
65752;DHT22;52486;51.098;13.770;2023-12-20T03:47:16;21.60;66.50
65752;DHT22;52486;51.098;13.770;2023-12-20T03:49:42;21.60;66.40
65752;DHT22;52486;51.098;13.770;2023-12-20T03:52:07;21.60;66.50
65752;DHT22;52486;51.098;13.770;2023-12-20T03:54:33;21.60;66.40
65752;DHT22;52486;51.098;13.770;2023-12-20T03:56:58;21.80;66.70
65752;DHT22;52486;51.098;13.770;2023-12-20T03:59:24;21.60;66.40
65752;DHT22;52486;51.098;13.770;2023-12-20T04:01:49;21.60;66.40
65752;DHT22;52486;51.098;13.770;2023-12-20T04:04:15;21.50;66.40
65752;DHT22;52486;51.098;13.770;2023-12-20T04:06:40;21.60;66.40
65752;DHT22;52486;51.098;13.770;2023-12-20T04:09:06;21.50;66.40
65752;DHT22;52486;51.098;13.770;2023-12-20T04:11:34;21.60;66.40
65752;DHT22;52486;51.098;13.770;2023-12-20T04:14:00;21.50;66.40
65752;DHT22;52486;51.098;13.770;2023-12-20T04:16:26;21.50;66.40
65752;DHT22;52486;51.098;13.770;2023-12-20T04:18:51;21.50;66.40
65752;DHT22;52486;51.098;13.770;2023-12-20T04:21:17;21.80;66.60
65752;DHT22;52486;51.098;13.770;2023-12-20T04:23:43;21.70;66.60
65752;DHT22;52486;51.098;13.770;2023-12-20T04:35:52;21.60;66.40
65752;DHT22;52486;51.098;13.770;2023-12-20T04:40:43;21.60;66.40
65752;DHT22;52486;51.098;13.770;2023-12-20T04:45:35;21.50;66.50
65752;DHT22;52486;51.098;13.770;2023-12-20T04:48:01;21.50;66.40
65752;DHT22;52486;51.098;13.770;2023-12-20T05:00:11;21.70;66.10
65752;DHT22;52486;51.098;13.770;2023-12-20T05:02:37;21.40;66.30
65752;DHT22;52486;51.098;13.770;2023-12-20T05:05:02;21.50;66.10
65752;DHT22;52486;51.098;13.770;2023-12-20T05:07:28;21.40;66.10
65752;DHT22;52486;51.098;13.770;2023-12-20T05:12:19;21.60;66.10
65752;DHT22;52486;51.098;13.770;2023-12-20T05:17:11;21.60;66.40
65752;DHT22;52486;51.098;13.770;2023-12-20T05:19:36;21.40;66.30
65752;DHT22;52486;51.098;13.770;2023-12-20T05:24:28;21.50;66.50
65752;DHT22;52486;51.098;13.770;2023-12-20T05:26:53;21.60;66.40
65752;DHT22;52486;51.098;13.770;2023-12-20T05:29:19;21.70;66.60
65752;DHT22;52486;51.098;13.770;2023-12-20T05:31:45;21.60;66.60
65752;DHT22;52486;51.098;13.770;2023-12-20T05:34:10;21.60;66.70
65752;DHT22;52486;51.098;13.770;2023-12-20T05:39:02;21.50;66.60
65752;DHT22;52486;51.098;13.770;2023-12-20T05:41:28;21.40;66.40
65752;DHT22;52486;51.098;13.770;2023-12-20T05:43:54;21.50;66.60
65752;DHT22;52486;51.098;13.770;2023-12-20T05:46:19;21.60;66.70
65752;DHT22;52486;51.098;13.770;2023-12-20T05:51:12;21.60;66.40
65752;DHT22;52486;51.098;13.770;2023-12-20T05:53:38;21.60;66.70
65752;DHT22;52486;51.098;13.770;2023-12-20T05:56:04;21.60;66.60
65752;DHT22;52486;51.098;13.770;2023-12-20T05:58:29;21.50;66.70
65752;DHT22;52486;51.098;13.770;2023-12-20T06:00:55;21.40;66.50
65752;DHT22;52486;51.098;13.770;2023-12-20T06:03:20;21.40;66.50
65752;DHT22;52486;51.098;13.770;2023-12-20T06:05:46;21.70;66.60
65752;DHT22;52486;51.098;13.770;2023-12-20T06:08:11;21.40;65.40
65752;DHT22;52486;51.098;13.770;2023-12-20T06:10:37;21.50;66.50
65752;DHT22;52486;51.098;13.770;2023-12-20T06:13:03;21.60;66.60
65752;DHT22;52486;51.098;13.770;2023-12-20T06:15:29;21.40;66.40
65752;DHT22;52486;51.098;13.770;2023-12-20T06:17:55;21.50;66.70
65752;DHT22;52486;51.098;13.770;2023-12-20T06:20:20;21.30;65.30
65752;DHT22;52486;51.098;13.770;2023-12-20T06:22:46;21.60;66.70
65752;DHT22;52486;51.098;13.770;2023-12-20T06:25:12;21.50;66.60
65752;DHT22;52486;51.098;13.770;2023-12-20T06:27:37;21.50;66.70
65752;DHT22;52486;51.098;13.770;2023-12-20T06:34:54;21.40;66.50
65752;DHT22;52486;51.098;13.770;2023-12-20T06:39:46;21.40;66.50
65752;DHT22;52486;51.098;13.770;2023-12-20T06:42:12;21.50;65.30
65752;DHT22;52486;51.098;13.770;2023-12-20T06:44:38;21.40;65.30
65752;DHT22;52486;51.098;13.770;2023-12-20T06:47:04;21.30;66.60
65752;DHT22;52486;51.098;13.770;2023-12-20T06:49:29;21.50;66.70
65752;DHT22;52486;51.098;13.770;2023-12-20T06:54:21;21.60;66.80
65752;DHT22;52486;51.098;13.770;2023-12-20T06:56:46;21.40;66.60
65752;DHT22;52486;51.098;13.770;2023-12-20T06:59:12;21.50;66.80
65752;DHT22;52486;51.098;13.770;2023-12-20T07:01:37;21.50;66.80
65752;DHT22;52486;51.098;13.770;2023-12-20T07:08:55;21.50;66.60
65752;DHT22;52486;51.098;13.770;2023-12-20T07:11:20;21.50;66.30
65752;DHT22;52486;51.098;13.770;2023-12-20T07:13:46;21.60;67.00
65752;DHT22;52486;51.098;13.770;2023-12-20T07:16:11;21.50;67.50
65752;DHT22;52486;51.098;13.770;2023-12-20T07:18:37;21.60;65.80
65752;DHT22;52486;51.098;13.770;2023-12-20T07:23:31;21.80;66.70
65752;DHT22;52486;51.098;13.770;2023-12-20T07:25:57;21.90;66.60
65752;DHT22;52486;51.098;13.770;2023-12-20T07:28:23;21.80;66.70
65752;DHT22;52486;51.098;13.770;2023-12-20T07:30:48;22.10;66.50
65752;DHT22;52486;51.098;13.770;2023-12-20T07:35:39;22.20;66.30
65752;DHT22;52486;51.098;13.770;2023-12-20T07:38:05;22.10;66.20
65752;DHT22;52486;51.098;13.770;2023-12-20T07:40:31;22.10;66.10
65752;DHT22;52486;51.098;13.770;2023-12-20T07:42:57;22.10;65.70
65752;DHT22;52486;51.098;13.770;2023-12-20T07:50:15;22.30;67.00
65752;DHT22;52486;51.098;13.770;2023-12-20T07:52:41;22.20;66.30
65752;DHT22;52486;51.098;13.770;2023-12-20T07:55:07;22.30;66.90
65752;DHT22;52486;51.098;13.770;2023-12-20T08:04:50;22.40;66.40
65752;DHT22;52486;51.098;13.770;2023-12-20T08:07:15;22.40;65.90
65752;DHT22;52486;51.098;13.770;2023-12-20T08:09:41;22.50;65.60
65752;DHT22;52486;51.098;13.770;2023-12-20T08:16:59;22.50;65.70
65752;DHT22;52486;51.098;13.770;2023-12-20T08:19:24;22.70;65.80
65752;DHT22;52486;51.098;13.770;2023-12-20T08:21:50;22.70;65.80
65752;DHT22;52486;51.098;13.770;2023-12-20T08:24:15;22.90;65.00
65752;DHT22;52486;51.098;13.770;2023-12-20T08:26:41;22.80;65.70
65752;DHT22;52486;51.098;13.770;2023-12-20T08:29:06;23.10;65.60
65752;DHT22;52486;51.098;13.770;2023-12-20T08:31:32;22.70;65.40
65752;DHT22;52486;51.098;13.770;2023-12-20T08:33:57;22.90;65.50
65752;DHT22;52486;51.098;13.770;2023-12-20T08:36:23;22.90;65.40
65752;DHT22;52486;51.098;13.770;2023-12-20T08:38:48;23.00;65.40
65752;DHT22;52486;51.098;13.770;2023-12-20T08:41:14;23.10;65.30
65752;DHT22;52486;51.098;13.770;2023-12-20T08:46:05;23.10;65.10
65752;DHT22;52486;51.098;13.770;2023-12-20T08:48:31;23.20;65.20
65752;DHT22;52486;51.098;13.770;2023-12-20T08:53:23;22.90;64.80
65752;DHT22;52486;51.098;13.770;2023-12-20T09:00:42;23.20;64.60
65752;DHT22;52486;51.098;13.770;2023-12-20T09:03:07;23.20;64.90
65752;DHT22;52486;51.098;13.770;2023-12-20T09:07:59;23.30;64.80
65752;DHT22;52486;51.098;13.770;2023-12-20T09:12:51;23.40;64.80
65752;DHT22;52486;51.098;13.770;2023-12-20T09:15:22;23.40;65.10
65752;DHT22;52486;51.098;13.770;2023-12-20T09:22:40;23.10;64.70
65752;DHT22;52486;51.098;13.770;2023-12-20T09:25:07;23.50;64.90
65752;DHT22;52486;51.098;13.770;2023-12-20T09:29:58;23.50;64.80
65752;DHT22;52486;51.098;13.770;2023-12-20T09:32:24;23.20;64.90
65752;DHT22;52486;51.098;13.770;2023-12-20T09:34:49;23.30;64.80
65752;DHT22;52486;51.098;13.770;2023-12-20T09:37:15;23.20;64.90
65752;DHT22;52486;51.098;13.770;2023-12-20T09:39:42;23.60;63.90
65752;DHT22;52486;51.098;13.770;2023-12-20T09:42:11;23.40;65.00
65752;DHT22;52486;51.098;13.770;2023-12-20T09:44:38;23.30;65.00
65752;DHT22;52486;51.098;13.770;2023-12-20T09:47:07;23.50;65.00
65752;DHT22;52486;51.098;13.770;2023-12-20T09:51:59;23.30;64.80
65752;DHT22;52486;51.098;13.770;2023-12-20T09:54:25;23.40;64.80
65752;DHT22;52486;51.098;13.770;2023-12-20T09:56:52;23.20;64.80
65752;DHT22;52486;51.098;13.770;2023-12-20T09:59:17;23.20;64.70
65752;DHT22;52486;51.098;13.770;2023-12-20T10:01:43;23.30;64.90
65752;DHT22;52486;51.098;13.770;2023-12-20T10:04:09;23.00;64.60
65752;DHT22;52486;51.098;13.770;2023-12-20T10:06:46;23.10;64.70
65752;DHT22;52486;51.098;13.770;2023-12-20T10:14:04;23.30;64.60
65752;DHT22;52486;51.098;13.770;2023-12-20T10:16:30;23.40;64.60
65752;DHT22;52486;51.098;13.770;2023-12-20T10:18:56;23.40;63.20
65752;DHT22;52486;51.098;13.770;2023-12-20T10:21:24;23.30;64.50
65752;DHT22;52486;51.098;13.770;2023-12-20T10:23:55;23.20;64.00
65752;DHT22;52486;51.098;13.770;2023-12-20T10:26:21;23.40;63.90
65752;DHT22;52486;51.098;13.770;2023-12-20T10:28:50;23.30;63.40
65752;DHT22;52486;51.098;13.770;2023-12-20T10:31:26;23.40;63.20
65752;DHT22;52486;51.098;13.770;2023-12-20T10:36:18;23.30;63.40
65752;DHT22;52486;51.098;13.770;2023-12-20T10:41:10;23.20;63.40
65752;DHT22;52486;51.098;13.770;2023-12-20T10:50:55;22.90;63.80
65752;DHT22;52486;51.098;13.770;2023-12-20T10:53:21;22.80;63.70
65752;DHT22;52486;51.098;13.770;2023-12-20T10:55:47;22.80;63.80
65752;DHT22;52486;51.098;13.770;2023-12-20T10:58:15;23.00;63.90
65752;DHT22;52486;51.098;13.770;2023-12-20T11:00:41;22.70;63.80
65752;DHT22;52486;51.098;13.770;2023-12-20T11:03:09;22.80;63.80
65752;DHT22;52486;51.098;13.770;2023-12-20T11:08:28;23.00;63.90
65752;DHT22;52486;51.098;13.770;2023-12-20T11:10:58;23.10;63.90
65752;DHT22;52486;51.098;13.770;2023-12-20T11:13:28;22.80;63.60
65752;DHT22;52486;51.098;13.770;2023-12-20T11:15:56;23.00;63.80
65752;DHT22;52486;51.098;13.770;2023-12-20T11:20:48;23.00;63.60
65752;DHT22;52486;51.098;13.770;2023-12-20T11:23:14;23.00;63.50
65752;DHT22;52486;51.098;13.770;2023-12-20T11:25:46;23.00;63.30
65752;DHT22;52486;51.098;13.770;2023-12-20T11:28:12;23.20;63.30
65752;DHT22;52486;51.098;13.770;2023-12-20T11:30:56;23.30;63.30
65752;DHT22;52486;51.098;13.770;2023-12-20T11:33:27;23.20;63.00
65752;DHT22;52486;51.098;13.770;2023-12-20T11:35:58;23.30;63.00
65752;DHT22;52486;51.098;13.770;2023-12-20T11:38:25;23.30;63.10
65752;DHT22;52486;51.098;13.770;2023-12-20T11:43:32;23.30;62.90
65752;DHT22;52486;51.098;13.770;2023-12-20T11:46:07;23.40;63.00
65752;DHT22;52486;51.098;13.770;2023-12-20T11:48:39;23.00;62.70
65752;DHT22;52486;51.098;13.770;2023-12-20T11:51:12;23.40;62.90
65752;DHT22;52486;51.098;13.770;2023-12-20T11:53:41;23.30;62.70
65752;DHT22;52486;51.098;13.770;2023-12-20T11:56:10;23.20;63.00
65752;DHT22;52486;51.098;13.770;2023-12-20T11:58:36;23.20;62.90
65752;DHT22;52486;51.098;13.770;2023-12-20T12:01:02;23.40;63.50
65752;DHT22;52486;51.098;13.770;2023-12-20T12:03:28;23.50;63.20
65752;DHT22;52486;51.098;13.770;2023-12-20T12:05:53;23.50;63.00
65752;DHT22;52486;51.098;13.770;2023-12-20T12:08:19;23.40;62.60
65752;DHT22;52486;51.098;13.770;2023-12-20T12:10:44;23.50;62.60
65752;DHT22;52486;51.098;13.770;2023-12-20T12:18:03;23.70;62.10
65752;DHT22;52486;51.098;13.770;2023-12-20T12:20:28;23.90;61.80
65752;DHT22;52486;51.098;13.770;2023-12-20T12:23:00;23.50;61.50
65752;DHT22;52486;51.098;13.770;2023-12-20T12:25:26;23.90;61.40
65752;DHT22;52486;51.098;13.770;2023-12-20T12:27:52;23.80;60.60
65752;DHT22;52486;51.098;13.770;2023-12-20T12:30:18;23.80;60.80
65752;DHT22;52486;51.098;13.770;2023-12-20T12:32:44;24.10;60.70
65752;DHT22;52486;51.098;13.770;2023-12-20T12:35:09;23.90;60.50
65752;DHT22;52486;51.098;13.770;2023-12-20T12:37:35;23.80;60.40
65752;DHT22;52486;51.098;13.770;2023-12-20T12:40:03;24.00;60.40
65752;DHT22;52486;51.098;13.770;2023-12-20T12:42:30;24.10;60.40
65752;DHT22;52486;51.098;13.770;2023-12-20T12:44:55;24.20;60.30
65752;DHT22;52486;51.098;13.770;2023-12-20T12:47:24;24.10;60.30
65752;DHT22;52486;51.098;13.770;2023-12-20T12:49:50;24.10;60.10
65752;DHT22;52486;51.098;13.770;2023-12-20T12:52:16;24.10;60.00
65752;DHT22;52486;51.098;13.770;2023-12-20T12:54:42;24.10;59.90
65752;DHT22;52486;51.098;13.770;2023-12-20T12:57:08;24.30;59.90
65752;DHT22;52486;51.098;13.770;2023-12-20T12:59:33;24.20;59.80
65752;DHT22;52486;51.098;13.770;2023-12-20T13:01:58;24.00;59.70
65752;DHT22;52486;51.098;13.770;2023-12-20T13:04:24;24.40;59.70
65752;DHT22;52486;51.098;13.770;2023-12-20T13:06:49;25.30;60.90
65752;DHT22;52486;51.098;13.770;2023-12-20T13:09:15;24.00;59.30
65752;DHT22;52486;51.098;13.770;2023-12-20T13:11:40;24.10;58.90
65752;DHT22;52486;51.098;13.770;2023-12-20T13:14:06;24.30;57.80
65752;DHT22;52486;51.098;13.770;2023-12-20T13:16:32;24.50;57.60
65752;DHT22;52486;51.098;13.770;2023-12-20T13:18:59;24.50;57.60
65752;DHT22;52486;51.098;13.770;2023-12-20T13:21:25;24.20;56.10
65752;DHT22;52486;51.098;13.770;2023-12-20T13:23:50;24.40;55.80
65752;DHT22;52486;51.098;13.770;2023-12-20T13:26:16;24.20;55.70
65752;DHT22;52486;51.098;13.770;2023-12-20T13:28:42;24.30;56.10
65752;DHT22;52486;51.098;13.770;2023-12-20T13:31:08;24.10;55.50
65752;DHT22;52486;51.098;13.770;2023-12-20T13:33:33;24.10;55.10
65752;DHT22;52486;51.098;13.770;2023-12-20T13:35:59;24.50;55.80
65752;DHT22;52486;51.098;13.770;2023-12-20T13:38:25;24.20;55.30
65752;DHT22;52486;51.098;13.770;2023-12-20T13:40:50;24.10;54.90
65752;DHT22;52486;51.098;13.770;2023-12-20T13:43:16;24.40;55.10
65752;DHT22;52486;51.098;13.770;2023-12-20T13:45:46;24.30;54.30
65752;DHT22;52486;51.098;13.770;2023-12-20T13:50:38;24.10;53.50
65752;DHT22;52486;51.098;13.770;2023-12-20T13:53:03;24.10;53.70
65752;DHT22;52486;51.098;13.770;2023-12-20T13:55:29;24.00;53.80
65752;DHT22;52486;51.098;13.770;2023-12-20T13:57:56;24.20;53.80
65752;DHT22;52486;51.098;13.770;2023-12-20T14:00:21;24.20;53.80
65752;DHT22;52486;51.098;13.770;2023-12-20T14:02:47;24.00;53.90
65752;DHT22;52486;51.098;13.770;2023-12-20T14:05:13;23.90;54.00
65752;DHT22;52486;51.098;13.770;2023-12-20T14:07:43;23.80;53.90
65752;DHT22;52486;51.098;13.770;2023-12-20T14:10:11;23.80;53.90
65752;DHT22;52486;51.098;13.770;2023-12-20T14:12:37;23.90;54.00
65752;DHT22;52486;51.098;13.770;2023-12-20T14:15:03;23.80;53.80
65752;DHT22;52486;51.098;13.770;2023-12-20T14:17:29;23.40;53.60
65752;DHT22;52486;51.098;13.770;2023-12-20T14:19:55;23.50;54.00
65752;DHT22;52486;51.098;13.770;2023-12-20T14:22:20;23.30;54.00
65752;DHT22;52486;51.098;13.770;2023-12-20T14:24:46;23.30;53.90
65752;DHT22;52486;51.098;13.770;2023-12-20T14:27:11;23.60;54.40
65752;DHT22;52486;51.098;13.770;2023-12-20T14:29:37;23.20;54.30
65752;DHT22;52486;51.098;13.770;2023-12-20T14:34:29;23.30;54.90
65752;DHT22;52486;51.098;13.770;2023-12-20T14:36:54;23.20;54.80
65752;DHT22;52486;51.098;13.770;2023-12-20T14:39:20;23.00;55.40
65752;DHT22;52486;51.098;13.770;2023-12-20T14:41:46;23.10;55.70
65752;DHT22;52486;51.098;13.770;2023-12-20T14:44:11;23.20;55.60
65752;DHT22;52486;51.098;13.770;2023-12-20T14:46:37;23.20;55.70
65752;DHT22;52486;51.098;13.770;2023-12-20T14:49:05;23.10;55.10
65752;DHT22;52486;51.098;13.770;2023-12-20T14:51:31;23.00;55.30
65752;DHT22;52486;51.098;13.770;2023-12-20T14:53:56;23.30;54.30
65752;DHT22;52486;51.098;13.770;2023-12-20T14:56:23;22.90;56.00
65752;DHT22;52486;51.098;13.770;2023-12-20T14:58:49;23.20;56.60
65752;DHT22;52486;51.098;13.770;2023-12-20T15:01:14;23.10;56.80
65752;DHT22;52486;51.098;13.770;2023-12-20T15:03:40;23.30;57.20
65752;DHT22;52486;51.098;13.770;2023-12-20T15:08:32;23.30;57.10
65752;DHT22;52486;51.098;13.770;2023-12-20T15:10:58;23.00;57.30
65752;DHT22;52486;51.098;13.770;2023-12-20T15:15:50;23.30;57.70
65752;DHT22;52486;51.098;13.770;2023-12-20T15:18:16;23.40;57.80
65752;DHT22;52486;51.098;13.770;2023-12-20T15:20:41;23.40;57.90
65752;DHT22;52486;51.098;13.770;2023-12-20T15:23:09;23.10;57.70
65752;DHT22;52486;51.098;13.770;2023-12-20T15:25:34;23.30;57.90
65752;DHT22;52486;51.098;13.770;2023-12-20T15:28:00;23.50;58.20
65752;DHT22;52486;51.098;13.770;2023-12-20T15:30:28;23.40;58.00
65752;DHT22;52486;51.098;13.770;2023-12-20T15:32:54;23.30;58.00
65752;DHT22;52486;51.098;13.770;2023-12-20T15:35:20;23.40;58.20
65752;DHT22;52486;51.098;13.770;2023-12-20T15:37:45;23.40;58.20
65752;DHT22;52486;51.098;13.770;2023-12-20T15:40:11;23.50;58.40
65752;DHT22;52486;51.098;13.770;2023-12-20T15:42:40;23.50;58.40
65752;DHT22;52486;51.098;13.770;2023-12-20T15:49:58;23.20;58.60
65752;DHT22;52486;51.098;13.770;2023-12-20T15:52:23;23.20;58.50
65752;DHT22;52486;51.098;13.770;2023-12-20T15:54:49;23.60;58.90
65752;DHT22;52486;51.098;13.770;2023-12-20T15:57:15;23.40;59.00
65752;DHT22;52486;51.098;13.770;2023-12-20T15:59:43;23.40;59.10
65752;DHT22;52486;51.098;13.770;2023-12-20T16:02:09;23.20;59.10
65752;DHT22;52486;51.098;13.770;2023-12-20T16:04:34;23.20;59.40
65752;DHT22;52486;51.098;13.770;2023-12-20T16:07:00;23.20;59.50
65752;DHT22;52486;51.098;13.770;2023-12-20T16:09:25;23.20;59.50
65752;DHT22;52486;51.098;13.770;2023-12-20T16:16:45;22.90;59.70
65752;DHT22;52486;51.098;13.770;2023-12-20T16:19:10;23.20;59.90
65752;DHT22;52486;51.098;13.770;2023-12-20T16:21:36;23.00;59.90
65752;DHT22;52486;51.098;13.770;2023-12-20T16:24:01;23.00;60.00
65752;DHT22;52486;51.098;13.770;2023-12-20T16:26:27;22.70;59.90
65752;DHT22;52486;51.098;13.770;2023-12-20T16:28:53;22.80;60.10
65752;DHT22;52486;51.098;13.770;2023-12-20T16:33:44;22.70;60.20
65752;DHT22;52486;51.098;13.770;2023-12-20T16:38:36;22.70;60.40
65752;DHT22;52486;51.098;13.770;2023-12-20T16:41:01;22.50;60.40
65752;DHT22;52486;51.098;13.770;2023-12-20T16:43:27;22.70;60.60
65752;DHT22;52486;51.098;13.770;2023-12-20T16:48:18;22.50;60.60
65752;DHT22;52486;51.098;13.770;2023-12-20T16:53:10;22.40;60.00
65752;DHT22;52486;51.098;13.770;2023-12-20T16:55:35;22.50;60.80
65752;DHT22;52486;51.098;13.770;2023-12-20T16:58:01;22.60;61.00
65752;DHT22;52486;51.098;13.770;2023-12-20T17:00:26;22.30;60.90
65752;DHT22;52486;51.098;13.770;2023-12-20T17:02:52;22.30;61.00
65752;DHT22;52486;51.098;13.770;2023-12-20T17:05:17;22.40;61.00
65752;DHT22;52486;51.098;13.770;2023-12-20T17:07:43;22.30;61.00
65752;DHT22;52486;51.098;13.770;2023-12-20T17:12:35;22.30;61.20
65752;DHT22;52486;51.098;13.770;2023-12-20T17:15:01;22.30;61.10
65752;DHT22;52486;51.098;13.770;2023-12-20T17:22:20;22.20;61.40
65752;DHT22;52486;51.098;13.770;2023-12-20T17:27:11;22.40;61.50
65752;DHT22;52486;51.098;13.770;2023-12-20T17:29:38;22.20;61.40
65752;DHT22;52486;51.098;13.770;2023-12-20T17:32:03;22.20;61.60
65752;DHT22;52486;51.098;13.770;2023-12-20T17:34:29;21.90;61.40
65752;DHT22;52486;51.098;13.770;2023-12-20T17:36:55;22.10;61.60
65752;DHT22;52486;51.098;13.770;2023-12-20T17:39:20;22.00;61.50
65752;DHT22;52486;51.098;13.770;2023-12-20T17:49:04;22.20;61.80
65752;DHT22;52486;51.098;13.770;2023-12-20T17:56:22;22.00;62.10
65752;DHT22;52486;51.098;13.770;2023-12-20T18:01:15;22.10;62.10
65752;DHT22;52486;51.098;13.770;2023-12-20T18:06:07;22.00;61.60
65752;DHT22;52486;51.098;13.770;2023-12-20T18:10:58;22.00;62.10
65752;DHT22;52486;51.098;13.770;2023-12-20T18:18:16;21.90;62.00
65752;DHT22;52486;51.098;13.770;2023-12-20T18:25:33;21.70;62.10
65752;DHT22;52486;51.098;13.770;2023-12-20T18:27:59;21.80;62.10
65752;DHT22;52486;51.098;13.770;2023-12-20T18:30:25;22.10;61.20
65752;DHT22;52486;51.098;13.770;2023-12-20T18:32:51;21.90;62.30
65752;DHT22;52486;51.098;13.770;2023-12-20T18:35:16;21.90;62.50
65752;DHT22;52486;51.098;13.770;2023-12-20T18:37:42;21.90;62.40
65752;DHT22;52486;51.098;13.770;2023-12-20T18:40:07;21.80;62.40
65752;DHT22;52486;51.098;13.770;2023-12-20T18:42:33;21.90;62.50
65752;DHT22;52486;51.098;13.770;2023-12-20T18:47:25;21.70;62.40
65752;DHT22;52486;51.098;13.770;2023-12-20T18:49:51;22.00;62.70
65752;DHT22;52486;51.098;13.770;2023-12-20T18:52:16;21.80;62.50
65752;DHT22;52486;51.098;13.770;2023-12-20T18:54:41;21.50;62.50
65752;DHT22;52486;51.098;13.770;2023-12-20T18:57:07;21.70;62.60
65752;DHT22;52486;51.098;13.770;2023-12-20T18:59:37;21.80;62.70
65752;DHT22;52486;51.098;13.770;2023-12-20T19:02:03;21.90;62.70
65752;DHT22;52486;51.098;13.770;2023-12-20T19:04:28;21.90;62.60
65752;DHT22;52486;51.098;13.770;2023-12-20T19:06:54;21.80;62.60
65752;DHT22;52486;51.098;13.770;2023-12-20T19:09:23;21.70;62.70
65752;DHT22;52486;51.098;13.770;2023-12-20T19:11:50;21.80;62.70
65752;DHT22;52486;51.098;13.770;2023-12-20T19:16:41;21.90;62.80